createdAt,value
2018-08-19T00:02:06.688Z,17.87
2018-08-19T00:04:35.736Z,17.94
2018-08-19T00:07:04.800Z,18.00
2018-08-19T00:09:33.874Z,18.07
2018-08-19T00:14:38.709Z,18.26
2018-08-19T00:17:07.767Z,18.24
2018-08-19T00:19:37.722Z,18.19
2018-08-19T00:22:07.212Z,18.06
2018-08-19T00:24:36.279Z,17.99
2018-08-19T00:27:05.325Z,17.97
2018-08-19T00:29:34.497Z,17.97
2018-08-19T00:32:03.558Z,17.99
2018-08-19T00:34:32.623Z,18.03
2018-08-19T00:37:01.676Z,18.04
2018-08-19T00:39:30.752Z,18.04
2018-08-19T00:42:00.739Z,18.08
2018-08-19T00:44:29.794Z,18.07
2018-08-19T00:46:58.850Z,17.96
2018-08-19T00:52:03.714Z,18.16
2018-08-19T00:54:32.931Z,18.18
2018-08-19T00:59:37.875Z,17.80
2018-08-19T01:02:06.938Z,17.87
2018-08-19T01:04:36.958Z,17.74
2018-08-19T01:07:06.224Z,17.82
2018-08-19T01:09:35.298Z,17.61
2018-08-19T01:14:40.157Z,17.76
2018-08-19T01:19:45.001Z,17.83
2018-08-19T01:22:14.149Z,17.80
2018-08-19T01:27:18.967Z,17.77
2018-08-19T01:29:48.020Z,17.77
2018-08-19T01:32:17.090Z,17.68
2018-08-19T01:34:46.146Z,17.58
2018-08-19T01:37:15.242Z,17.56
2018-08-19T01:42:21.129Z,17.60
2018-08-19T01:44:50.198Z,17.61
2018-08-19T01:47:19.369Z,17.66
2018-08-19T01:49:48.476Z,17.55
2018-08-19T01:54:53.262Z,17.39
2018-08-19T01:59:58.103Z,17.25
2018-08-19T02:02:27.164Z,17.29
2018-08-19T02:04:56.216Z,17.22
2018-08-19T02:10:01.066Z,17.20
2018-08-19T02:14:08.498Z,17.15
2018-08-19T02:16:37.554Z,17.10
2018-08-19T02:19:06.898Z,17.11
2018-08-19T02:21:35.965Z,17.04
2018-08-19T02:24:05.041Z,16.98
2018-08-19T02:26:34.264Z,16.94
2018-08-19T02:29:03.314Z,16.97
2018-08-19T02:31:32.426Z,16.89
2018-08-19T02:34:01.479Z,16.87
2018-08-19T02:36:30.532Z,16.90
2018-08-19T02:38:59.590Z,16.83
2018-08-19T02:41:29.604Z,16.79
2018-08-19T02:43:58.663Z,16.78
2018-08-19T02:46:27.728Z,16.79
2018-08-19T02:48:56.813Z,16.87
2018-08-19T02:51:25.876Z,16.91
2018-08-19T02:53:54.998Z,16.73
2018-08-19T02:56:26.047Z,16.57
2018-08-19T02:58:55.099Z,16.51
2018-08-19T03:01:24.181Z,16.62
2018-08-19T03:03:53.262Z,16.55
2018-08-19T03:06:22.313Z,16.47
2018-08-19T03:08:51.372Z,16.45
2018-08-19T03:11:20.430Z,16.46
2018-08-19T03:13:49.497Z,16.53
2018-08-19T03:16:19.556Z,16.54
2018-08-19T03:21:24.426Z,16.58
2018-08-19T03:23:53.509Z,16.66
2018-08-19T03:26:22.711Z,16.52
2018-08-19T03:28:51.771Z,16.53
2018-08-19T03:31:20.865Z,16.41
2018-08-19T03:33:49.897Z,16.40
2018-08-19T03:38:54.743Z,16.36
2018-08-19T03:41:23.822Z,16.43
2018-08-19T03:43:52.914Z,16.35
2018-08-19T03:46:22.262Z,16.39
2018-08-19T03:48:51.312Z,16.40
2018-08-19T03:51:20.385Z,16.20
2018-08-19T03:56:25.251Z,16.09
2018-08-19T04:04:05.954Z,16.28
2018-08-19T04:06:35.008Z,16.32
2018-08-19T04:09:04.307Z,16.11
2018-08-19T04:14:09.132Z,16.18
2018-08-19T04:16:38.206Z,16.29
2018-08-19T04:19:08.256Z,16.13
2018-08-19T04:21:37.310Z,16.02
2018-08-19T04:24:06.406Z,16.01
2018-08-19T04:26:35.495Z,16.08
2018-08-19T04:29:04.661Z,16.15
2018-08-19T04:31:34.717Z,16.18
2018-08-19T04:34:04.018Z,16.10
2018-08-19T04:36:33.130Z,16.08
2018-08-19T04:39:02.223Z,16.16
2018-08-19T04:41:31.520Z,16.26
2018-08-19T04:44:00.598Z,16.26
2018-08-19T04:46:30.648Z,16.27
2018-08-19T04:48:59.728Z,16.22
2018-08-19T04:51:28.773Z,16.30
2018-08-19T04:53:57.886Z,16.33
2018-08-19T04:56:26.983Z,16.39
2018-08-19T04:58:56.206Z,16.43
2018-08-19T05:01:25.251Z,16.43
2018-08-19T05:03:54.466Z,16.48
2018-08-19T05:06:23.817Z,16.50
2018-08-19T05:08:52.871Z,16.60
2018-08-19T05:11:21.950Z,16.67
2018-08-19T05:13:51.417Z,16.75
2018-08-19T05:16:20.477Z,16.82
2018-08-19T05:18:49.546Z,16.93
2018-08-19T05:21:18.618Z,17.00
2018-08-19T05:23:48.720Z,17.05
2018-08-19T05:26:17.772Z,17.18
2018-08-19T05:28:46.832Z,17.29
2018-08-19T05:31:15.900Z,17.39
2018-08-19T05:36:20.734Z,17.75
2018-08-19T05:38:49.813Z,17.96
2018-08-19T05:41:18.878Z,17.94
2018-08-19T05:43:47.950Z,17.99
2018-08-19T05:46:17.015Z,18.16
2018-08-19T05:48:46.076Z,18.23
2018-08-19T05:51:15.148Z,18.33
2018-08-19T05:53:44.209Z,18.41
2018-08-19T05:56:14.265Z,18.53
2018-08-19T06:01:19.114Z,18.84
2018-08-19T06:06:23.958Z,19.17
2018-08-19T06:14:04.708Z,19.56
2018-08-19T06:16:33.765Z,19.67
2018-08-19T06:19:04.806Z,19.73
2018-08-19T06:24:09.695Z,19.90
2018-08-19T06:26:38.760Z,20.14
2018-08-19T06:31:43.605Z,20.19
2018-08-19T06:34:12.658Z,20.19
2018-08-19T06:36:41.718Z,20.27
2018-08-19T06:39:12.735Z,20.36
2018-08-19T06:41:41.798Z,20.45
2018-08-19T06:44:10.930Z,20.58
2018-08-19T06:46:40.970Z,20.70
2018-08-19T06:49:10.030Z,20.88
2018-08-19T06:56:51.078Z,21.14
2018-08-19T06:59:20.129Z,21.22
2018-08-19T07:01:49.374Z,21.28
2018-08-19T07:06:54.248Z,21.58
2018-08-19T07:09:23.337Z,21.63
2018-08-19T07:11:52.391Z,21.74
2018-08-19T07:16:57.191Z,21.98
2018-08-19T07:19:26.245Z,21.97
2018-08-19T07:21:55.306Z,22.02
2018-08-19T07:24:24.357Z,22.18
2018-08-19T07:26:53.419Z,22.25
2018-08-19T07:29:24.096Z,22.27
2018-08-19T07:31:53.159Z,22.47
2018-08-19T07:34:22.213Z,22.43
2018-08-19T07:36:51.299Z,22.57
2018-08-19T07:41:56.396Z,22.90
2018-08-19T07:44:25.458Z,23.06
2018-08-19T07:46:54.519Z,23.16
2018-08-19T07:51:59.549Z,23.33
2018-08-19T07:54:28.602Z,23.46
2018-08-19T07:59:34.487Z,23.91
2018-08-19T08:02:04.548Z,24.13
2018-08-19T08:04:33.598Z,24.25
2018-08-19T08:09:38.485Z,24.35
2018-08-19T08:12:07.599Z,24.52
2018-08-19T08:14:36.686Z,24.22
2018-08-19T08:17:05.757Z,24.66
2018-08-19T08:24:46.757Z,24.86
2018-08-19T08:29:51.639Z,25.15
2018-08-19T08:32:20.710Z,25.31
2018-08-19T08:34:50.727Z,25.25
2018-08-19T08:39:55.618Z,25.76
2018-08-19T08:42:24.683Z,25.90
2018-08-19T08:47:29.602Z,26.42
2018-08-19T08:49:59.549Z,26.80
2018-08-19T08:55:04.449Z,27.08
2018-08-19T08:57:33.715Z,27.15
2018-08-19T09:02:38.589Z,27.42
2018-08-19T09:05:07.631Z,28.01
2018-08-19T09:07:36.686Z,29.15
2018-08-19T09:10:05.753Z,30.27
2018-08-19T09:15:11.643Z,30.98
2018-08-19T09:17:40.702Z,31.78
2018-08-19T09:20:09.757Z,33.98
2018-08-19T09:22:38.846Z,34.17
2018-08-19T09:25:07.905Z,35.02
2018-08-19T09:27:37.944Z,34.50
2018-08-19T09:30:07.033Z,35.66
2018-08-19T09:32:36.068Z,36.48
2018-08-19T09:35:05.150Z,36.18
2018-08-19T09:37:34.190Z,36.98
2018-08-19T09:42:39.126Z,39.38
2018-08-19T09:45:10.325Z,37.09
2018-08-19T09:47:39.444Z,35.55
2018-08-19T09:50:10.394Z,33.98
2018-08-19T09:52:39.439Z,37.60
2018-08-19T09:55:10.442Z,35.39
2018-08-19T09:57:39.598Z,37.94
2018-08-19T10:00:08.593Z,37.64
2018-08-19T10:02:37.647Z,38.89
2018-08-19T10:05:07.702Z,40.16
2018-08-19T10:07:36.799Z,38.19
2018-08-19T10:10:05.815Z,39.37
2018-08-19T10:12:34.876Z,39.77
2018-08-19T10:17:40.827Z,40.96
2018-08-19T10:20:10.838Z,41.62
2018-08-19T10:22:40.859Z,41.99
2018-08-19T10:25:09.912Z,42.16
2018-08-19T10:27:38.980Z,39.23
2018-08-19T10:30:08.040Z,41.44
2018-08-19T10:32:37.077Z,41.20
2018-08-19T10:37:42.835Z,40.69
2018-08-19T10:40:12.859Z,41.63
2018-08-19T10:42:42.735Z,43.07
2018-08-19T10:45:12.790Z,42.04
2018-08-19T10:47:41.841Z,43.21
2018-08-19T10:50:10.901Z,40.21
2018-08-19T10:52:41.005Z,41.14
2018-08-19T10:55:10.070Z,43.20
2018-08-19T10:57:39.122Z,41.74
2018-08-19T11:00:08.177Z,44.52
2018-08-19T11:02:38.347Z,41.80
2018-08-19T11:07:43.229Z,44.42
2018-08-19T11:10:12.313Z,45.05
2018-08-19T11:12:41.389Z,44.67
2018-08-19T11:15:10.594Z,44.83
2018-08-19T11:20:15.535Z,45.46
2018-08-19T11:22:44.619Z,40.91
2018-08-19T11:25:13.666Z,40.65
2018-08-19T11:27:42.745Z,39.61
2018-08-19T11:30:11.801Z,41.15
2018-08-19T11:32:40.871Z,41.01
2018-08-19T11:35:09.926Z,41.13
2018-08-19T11:37:38.981Z,39.25
2018-08-19T11:40:09.061Z,38.03
2018-08-19T11:42:38.117Z,36.87
2018-08-19T11:45:07.175Z,35.65
2018-08-19T11:47:36.374Z,38.62
2018-08-19T11:50:05.440Z,37.94
2018-08-19T11:52:34.492Z,36.09
2018-08-19T11:55:03.815Z,33.84
2018-08-19T11:57:32.861Z,31.71
2018-08-19T12:00:02.870Z,31.88
2018-08-19T12:02:32.173Z,32.66
2018-08-19T12:05:01.225Z,34.01
2018-08-19T12:07:30.268Z,34.33
2018-08-19T12:09:59.357Z,36.45
2018-08-19T12:12:28.394Z,38.33
2018-08-19T12:17:33.255Z,38.43
2018-08-19T12:20:02.321Z,40.27
2018-08-19T12:22:31.348Z,41.74
2018-08-19T12:25:01.350Z,41.95
2018-08-19T12:27:30.485Z,42.05
2018-08-19T12:29:59.469Z,43.62
2018-08-19T12:32:28.541Z,45.93
2018-08-19T12:34:57.658Z,43.30
2018-08-19T12:37:26.734Z,42.80
2018-08-19T12:39:55.808Z,44.21
2018-08-19T12:42:25.025Z,45.21
2018-08-19T12:44:54.099Z,46.06
2018-08-19T12:49:58.851Z,45.82
2018-08-19T12:52:27.888Z,47.56
2018-08-19T12:54:57.012Z,43.67
2018-08-19T12:57:27.004Z,38.93
2018-08-19T12:59:56.058Z,42.10
2018-08-19T13:02:25.131Z,46.99
2018-08-19T13:04:54.208Z,47.55
2018-08-19T13:07:27.236Z,44.68
2018-08-19T13:09:56.289Z,46.71
2018-08-19T13:12:25.341Z,47.64
2018-08-19T13:14:54.596Z,47.21
2018-08-19T13:17:23.637Z,45.00
2018-08-19T13:19:52.724Z,42.80
2018-08-19T13:22:21.992Z,46.60
2018-08-19T13:24:52.015Z,46.80
2018-08-19T13:27:21.069Z,47.71
2018-08-19T13:29:50.141Z,45.04
2018-08-19T13:34:54.899Z,47.07
2018-08-19T13:37:23.971Z,49.20
2018-08-19T13:39:53.043Z,44.41
2018-08-19T13:42:22.102Z,41.48
2018-08-19T13:44:51.166Z,43.71
2018-08-19T13:47:20.380Z,42.45
2018-08-19T13:49:50.195Z,45.65
2018-08-19T13:52:19.255Z,41.60
2018-08-19T13:54:52.802Z,44.23
2018-08-19T13:57:21.830Z,46.68
2018-08-19T13:59:50.875Z,47.81
2018-08-19T14:02:20.273Z,46.47
2018-08-19T14:04:49.347Z,45.64
2018-08-19T14:07:18.403Z,44.71
2018-08-19T14:09:47.607Z,44.96
2018-08-19T14:14:52.748Z,43.31
2018-08-19T14:17:21.757Z,45.05
2018-08-19T14:19:50.846Z,46.92
2018-08-19T14:22:19.889Z,43.58
2018-08-19T14:24:48.971Z,45.58
2018-08-19T14:29:53.762Z,46.47
2018-08-19T14:32:22.787Z,45.03
2018-08-19T14:34:51.872Z,47.04
2018-08-19T14:37:20.942Z,42.80
2018-08-19T14:39:50.002Z,45.41
2018-08-19T14:42:19.091Z,47.23
2018-08-19T14:44:48.145Z,45.02
2018-08-19T14:47:18.195Z,46.23
2018-08-19T14:49:47.248Z,44.03
2018-08-19T14:52:16.306Z,45.00
2018-08-19T14:57:21.109Z,43.86
2018-08-19T14:59:50.463Z,43.12
2018-08-19T15:02:19.503Z,46.66
2018-08-19T15:04:48.560Z,47.52
2018-08-19T15:07:18.033Z,46.75
2018-08-19T15:09:47.272Z,44.54
2018-08-19T15:12:16.155Z,46.73
2018-08-19T15:14:45.499Z,44.57
2018-08-19T15:17:15.482Z,40.41
2018-08-19T15:19:44.560Z,42.24
2018-08-19T15:22:13.609Z,45.10
2018-08-19T15:27:18.349Z,43.08
2018-08-19T15:29:47.426Z,42.21
2018-08-19T15:32:17.565Z,41.81
2018-08-19T15:34:46.505Z,43.02
2018-08-19T15:37:15.611Z,42.97
2018-08-19T15:39:44.660Z,42.56
2018-08-19T15:42:13.701Z,41.53
2018-08-19T15:44:42.777Z,41.97
2018-08-19T15:47:13.298Z,43.63
2018-08-19T15:49:43.295Z,44.70
2018-08-19T15:52:12.351Z,44.30
2018-08-19T15:54:41.951Z,42.41
2018-08-19T15:57:11.026Z,42.39
2018-08-19T15:59:40.094Z,41.10
2018-08-19T16:02:09.146Z,40.88
2018-08-19T16:04:38.284Z,38.77
2018-08-19T16:07:07.310Z,38.00
2018-08-19T16:09:36.401Z,35.84
2018-08-19T16:14:41.283Z,37.83
2018-08-19T16:17:10.360Z,38.49
2018-08-19T16:19:39.409Z,36.71
2018-08-19T16:22:08.471Z,35.11
2018-08-19T16:24:38.453Z,35.48
2018-08-19T16:27:07.590Z,35.23
2018-08-19T16:29:36.614Z,33.48
2018-08-19T16:34:41.544Z,33.73
2018-08-19T16:39:46.457Z,32.93
2018-08-19T16:44:51.410Z,32.24
2018-08-19T16:47:20.445Z,32.19
2018-08-19T16:49:49.995Z,32.24
2018-08-19T16:52:19.043Z,32.02
2018-08-19T16:54:48.082Z,30.89
2018-08-19T16:57:17.253Z,30.62
2018-08-19T16:59:46.205Z,30.72
2018-08-19T17:04:51.114Z,30.16
2018-08-19T17:07:20.233Z,30.50
2018-08-19T17:09:49.380Z,30.11
2018-08-19T17:12:18.384Z,29.65
2018-08-19T17:14:47.446Z,29.42
2018-08-19T17:17:16.504Z,29.18
2018-08-19T17:19:45.590Z,28.95
2018-08-19T17:22:14.675Z,29.05
2018-08-19T17:27:19.574Z,29.10
2018-08-19T17:29:48.649Z,29.04
2018-08-19T17:32:17.699Z,28.73
2018-08-19T17:34:46.757Z,28.43
2018-08-19T17:37:15.816Z,28.17
2018-08-19T17:39:44.976Z,27.89
2018-08-19T17:44:49.697Z,27.39
2018-08-19T17:47:18.837Z,27.24
2018-08-19T17:49:47.871Z,27.03
2018-08-19T17:52:16.952Z,26.73
2018-08-19T17:54:46.229Z,26.45
2018-08-19T17:59:51.191Z,26.25
2018-08-19T18:02:20.221Z,26.04
2018-08-19T18:07:25.130Z,25.65
2018-08-19T18:09:54.183Z,25.47
2018-08-19T18:12:23.236Z,25.42
2018-08-19T18:14:52.378Z,25.25
2018-08-19T18:17:21.356Z,25.02
2018-08-19T18:19:50.403Z,24.56
2018-08-19T18:22:19.467Z,24.27
2018-08-19T18:27:24.391Z,24.22
2018-08-19T18:29:53.483Z,24.27
2018-08-19T18:32:22.619Z,24.22
2018-08-19T18:34:51.719Z,23.93
2018-08-19T18:37:20.761Z,23.70
2018-08-19T18:39:49.838Z,23.50
2018-08-19T18:42:18.884Z,23.43
2018-08-19T18:47:23.712Z,23.46
2018-08-19T18:49:52.902Z,23.46
2018-08-19T18:54:57.884Z,23.28
2018-08-19T18:57:26.921Z,23.22
2018-08-19T18:59:55.979Z,23.01
2018-08-19T19:02:25.200Z,22.89
2018-08-19T19:07:30.191Z,22.71
2018-08-19T19:12:35.059Z,22.55
2018-08-19T19:15:05.048Z,22.59
2018-08-19T19:17:34.133Z,22.38
2018-08-19T19:20:03.199Z,22.20
2018-08-19T19:22:32.250Z,22.28
2018-08-19T19:25:01.375Z,22.16
2018-08-19T19:27:30.437Z,22.13
2018-08-19T19:32:35.217Z,22.08
2018-08-19T19:35:04.297Z,22.00
2018-08-19T19:37:33.357Z,21.76
2018-08-19T19:40:03.793Z,21.64
2018-08-19T19:42:32.905Z,21.74
2018-08-19T19:45:01.883Z,21.83
2018-08-19T19:47:31.022Z,21.68
2018-08-19T19:50:00.104Z,21.53
2018-08-19T19:52:29.144Z,21.48
2018-08-19T19:54:58.726Z,21.57
2018-08-19T19:57:27.788Z,21.37
2018-08-19T19:59:56.827Z,21.30
2018-08-19T20:02:25.882Z,21.26
2018-08-19T20:04:54.931Z,21.11
2018-08-19T20:07:24.066Z,21.08
2018-08-19T20:09:53.132Z,20.98
2018-08-19T20:12:22.209Z,20.95
2018-08-19T20:14:51.249Z,20.92
2018-08-19T20:17:20.360Z,21.03
2018-08-19T20:19:50.415Z,20.99
2018-08-19T20:22:20.471Z,20.79
2018-08-19T20:24:50.442Z,20.83
2018-08-19T20:27:19.484Z,20.67
2018-08-19T20:29:48.538Z,20.52
2018-08-19T20:32:17.601Z,20.49
2018-08-19T20:34:46.664Z,20.58
2018-08-19T20:42:27.287Z,20.53
2018-08-19T20:47:32.122Z,20.47
2018-08-19T20:50:03.107Z,20.44
2018-08-19T20:52:32.129Z,20.40
2018-08-19T20:55:01.184Z,20.33
2018-08-19T20:57:30.226Z,20.28
2018-08-19T21:00:00.221Z,20.16
2018-08-19T21:02:29.251Z,20.08
2018-08-19T21:04:58.431Z,19.99
2018-08-19T21:07:27.510Z,19.89
2018-08-19T21:09:56.569Z,19.81
2018-08-19T21:12:25.706Z,19.79
2018-08-19T21:14:55.749Z,19.77
2018-08-19T21:17:24.788Z,19.78
2018-08-19T21:19:55.760Z,19.74
2018-08-19T21:22:24.834Z,19.88
2018-08-19T21:24:53.881Z,19.95
2018-08-19T21:27:22.967Z,20.05
2018-08-19T21:29:52.012Z,19.82
2018-08-19T21:32:22.051Z,19.76
2018-08-19T21:34:51.085Z,19.79
2018-08-19T21:37:20.155Z,19.80
2018-08-19T21:42:26.004Z,19.74
2018-08-19T21:44:55.136Z,19.83
2018-08-19T21:47:24.234Z,19.77
2018-08-19T21:55:04.935Z,19.65
2018-08-19T22:00:12.935Z,19.68
2018-08-19T22:02:41.981Z,19.52
2018-08-19T22:05:11.160Z,19.38
2018-08-19T22:07:40.186Z,19.33
2018-08-19T22:10:09.248Z,19.44
2018-08-19T22:12:38.302Z,19.42
2018-08-19T22:15:07.361Z,19.38
2018-08-19T22:17:36.428Z,19.32
2018-08-19T22:20:05.794Z,19.36
2018-08-19T22:25:11.673Z,19.17
2018-08-19T22:27:40.725Z,19.01
2018-08-19T22:30:09.770Z,18.83
2018-08-19T22:35:14.618Z,18.90
2018-08-19T22:37:43.682Z,18.93
2018-08-19T22:42:48.463Z,19.05
2018-08-19T22:45:17.508Z,19.03
2018-08-19T22:47:47.622Z,18.96
2018-08-19T22:50:16.675Z,19.08
2018-08-19T22:52:46.687Z,19.24
2018-08-19T22:55:15.745Z,19.23
2018-08-19T22:57:44.793Z,19.25
2018-08-19T23:00:13.892Z,19.28
2018-08-19T23:02:42.940Z,19.31
2018-08-19T23:05:12.000Z,19.33
2018-08-19T23:10:16.858Z,19.27
2018-08-19T23:12:45.924Z,19.17
2018-08-19T23:18:17.087Z,18.91
2018-08-19T23:20:46.152Z,18.90
2018-08-19T23:23:15.594Z,18.63
2018-08-19T23:28:20.632Z,18.68
2018-08-19T23:30:49.697Z,18.74
2018-08-19T23:33:18.754Z,18.70
2018-08-19T23:35:47.849Z,18.75
2018-08-19T23:38:16.923Z,18.73
2018-08-19T23:40:45.977Z,18.64
2018-08-19T23:45:51.822Z,18.33
2018-08-19T23:48:20.894Z,18.33
2018-08-19T23:56:01.550Z,18.44
2018-08-19T23:58:30.619Z,18.45
